»·PEaware :: N737RR L52-L88

N737RR :: L52-L88

FLIGHT INFORMATION

Flight Status: Arrived
Operator: Privately registered:
United States
More flights under this callsign
Pilot: Nicole M. (10129)
Aircraft: CESSNA 172 SKYHAWK
(C172)
More flights by this aircraft type
Origin: L52 Oceano Co
United States
Destination: L88 New Cuyama
United States
More flights between these airports :: More routes between these airports
Route: TO L88 VIA THE FLW VOR
File this flight plan on PilotEdge
Remarks: CAT-01 Flight; Non-towered to non-towered
Altitude:
(Current/Filed)
7,500ft
Speed:
(Current/Filed)
115kts
Departed: 01-Jan-18 04:09 PM
Arrived: 01-Jan-18 04:44 PM
Distance/Time
Traveled:
47nm/0:35
Distance/Time
To Go:
Arrived

Flight Plot

Page will automatically refresh every two minutes.

Flight plan parsing failed; only flown route is shown


Map Options




Map Legend


Flown Route
Filed Route
Departure Airport
Arrival Airport
Navaid (VOR, NDB)
Fix

Horizontal Profiles

Position Reports

Time Latitude Longitude Heading Altitude Ground
Speed
01-Jan-18 16:02 35.103437 -120.624098 200 17ft 0kts
01-Jan-18 16:03 35.103433 -120.624100 200 17ft 0kts
01-Jan-18 16:04 35.103430 -120.624101 200 17ft 0kts
01-Jan-18 16:05 35.103427 -120.624103 200 17ft 0kts
01-Jan-18 16:06 35.103423 -120.624104 200 17ft 0kts
01-Jan-18 16:07 35.103038 -120.624092 118 17ft 9kts
01-Jan-18 16:08 35.101863 -120.622449 218 17ft 0kts
01-Jan-18 16:09 35.101119 -120.622568 125 17ft 11kts
01-Jan-18 16:10 35.099557 -120.619961 99 17ft 0kts
01-Jan-18 16:11 35.099554 -120.619942 99 17ft 2kts
01-Jan-18 16:12 35.099347 -120.619220 26 17ft 0kts
01-Jan-18 16:13 35.099348 -120.619219 26 17ft 0kts
01-Jan-18 16:14 35.099349 -120.619218 26 17ft 0kts
01-Jan-18 16:15 35.104412 -120.627610 297 224ft 72kts
01-Jan-18 16:16 35.123491 -120.638100 10 936ft 102kts
01-Jan-18 16:17 35.134771 -120.611797 109 1670ft 93kts
01-Jan-18 16:18 35.133825 -120.581100 91 2483ft 89kts
01-Jan-18 16:19 35.140104 -120.551173 70 3224ft 90kts
01-Jan-18 16:20 35.146759 -120.521085 92 3899ft 94kts
01-Jan-18 16:21 35.130690 -120.496986 163 4462ft 99kts
01-Jan-18 16:22 35.103120 -120.497770 146 4724ft 124kts
01-Jan-18 16:23 35.095102 -120.465191 62 5120ft 120kts
01-Jan-18 16:24 35.117196 -120.438491 35 5542ft 115kts
01-Jan-18 16:25 35.126415 -120.403236 76 5950ft 99kts
01-Jan-18 16:26 35.128562 -120.369080 84 6476ft 100kts
01-Jan-18 16:27 35.127874 -120.335216 104 6961ft 101kts
01-Jan-18 16:28 35.119025 -120.302378 112 7419ft 102kts
01-Jan-18 16:29 35.109652 -120.268697 103 7582ft 103kts
01-Jan-18 16:30 35.112896 -120.234104 58 7466ft 108kts
01-Jan-18 16:31 35.119528 -120.199351 90 7549ft 107kts
01-Jan-18 16:32 35.120283 -120.161765 98 7540ft 116kts
01-Jan-18 16:33 35.108506 -120.125360 113 7490ft 118kts
01-Jan-18 16:34 35.110995 -120.086682 64 7490ft 113kts
01-Jan-18 16:35 35.108425 -120.046919 104 7286ft 115kts
01-Jan-18 16:36 35.101323 -120.011163 84 7389ft 114kts
01-Jan-18 16:37 35.101417 -119.973388 94 7514ft 109kts
01-Jan-18 16:38 35.099379 -119.935762 93 7592ft 111kts
01-Jan-18 16:39 35.094668 -119.897552 110 7460ft 122kts
01-Jan-18 16:40 35.090662 -119.858325 120 7440ft 117kts
01-Jan-18 16:41 35.061988 -119.837480 148 7299ft 118kts
01-Jan-18 16:42 35.034544 -119.817466 126 7340ft 123kts
01-Jan-18 16:43 35.018541 -119.782219 108 7328ft 127kts
01-Jan-18 16:44 34.992001 -119.762153 161 6768ft 118kts
01-Jan-18 16:45 34.962290 -119.749861 156 5817ft 113kts
01-Jan-18 16:46 34.936098 -119.724959 129 4067ft 133kts
01-Jan-18 16:47 34.923177 -119.689493 107 3054ft 106kts
01-Jan-18 16:48 34.927179 -119.667972 355 2792ft 75kts
01-Jan-18 16:49 34.937216 -119.687780 293 2206ft 47kts
01-Jan-18 16:50 34.939627 -119.693511 24 2206ft 5kts
01-Jan-18 16:51 34.939832 -119.693363 30 2206ft 0kts
01-Jan-18 16:52 34.939833 -119.693363 30 2206ft 0kts
01-Jan-18 16:53 34.939833 -119.693363 30 2206ft 0kts
01-Jan-18 16:54 34.939833 -119.693363 30 2206ft 0kts
01-Jan-18 16:55 34.939833 -119.693363 30 2206ft 0kts
01-Jan-18 16:56 34.939833 -119.693363 30 2206ft 0kts
01-Jan-18 16:57 34.939833 -119.693363 30 2206ft 0kts
01-Jan-18 16:58 34.939833 -119.693363 30 2206ft 0kts
01-Jan-18 16:59 34.939833 -119.693363 30 2206ft 0kts
01-Jan-18 17:00 34.939833 -119.693363 30 2206ft 0kts
01-Jan-18 17:01 34.939833 -119.693363 30 2206ft 0kts
01-Jan-18 17:02 34.939833 -119.693363 30 2206ft 0kts
01-Jan-18 17:03 34.939833 -119.693363 30 2206ft 0kts

Navigation Log

Ident Type
Flight plan parsing failed, navigation log unavailable